Time;durP1;ratioP1;P1;durP2;ratioP2;P2;SDS_P1;SDS_P2;PMS_P1;PMS_P2;Temp;Humidity;BMP_temperature;BMP_pressure;BME280_temperature;BME280_humidity;BME280_pressure;Samples;Min_cycle;Max_cycle;Signal;HPM_P1;HPM_P2
2022/04/21 00:01:37;;;;;;;10.97;6.67;;;;;;;3.92;82.46;94860.00;5022763;28;20213;-87
2022/04/21 00:04:02;;;;;;;7.63;5.87;;;;;;;3.84;82.69;94858.25;5017515;28;20662;-89
2022/04/21 00:06:28;;;;;;;10.20;6.50;;;;;;;3.58;82.72;94819.47;5023766;28;20189;-88
2022/04/21 00:08:54;;;;;;;12.17;6.43;;;;;;;3.51;82.30;94808.13;5025237;28;20208;-88
2022/04/21 00:11:20;;;;;;;9.27;6.07;;;;;;;3.44;82.27;94780.34;5032422;28;20152;-88
2022/04/21 00:13:46;;;;;;;9.10;6.67;;;;;;;3.95;82.69;94857.88;5014005;28;20176;-88
2022/04/21 00:16:12;;;;;;;8.83;6.17;;;;;;;3.54;82.28;94801.78;4998189;28;20608;-88
2022/04/21 00:18:38;;;;;;;9.57;6.37;;;;;;;3.55;82.60;94832.00;5019637;28;20191;-88
2022/04/21 00:21:05;;;;;;;11.33;6.30;;;;;;;3.33;83.64;94795.34;5013938;28;20257;-88
2022/04/21 00:23:31;;;;;;;14.87;6.87;;;;;;;3.53;83.19;94831.38;5032075;28;20183;-87
2022/04/21 00:25:59;;;;;;;18.23;8.47;;;;;;;3.37;82.96;94816.63;5015391;28;20238;-88
2022/04/21 00:28:26;;;;;;;13.03;7.33;;;;;;;3.52;83.46;94866.16;5036521;28;20585;-89
2022/04/21 00:30:51;;;;;;;14.07;7.90;;;;;;;3.05;83.32;94796.72;5017521;28;20211;-88
2022/04/21 00:33:17;;;;;;;11.77;7.13;;;;;;;2.95;84.20;94832.47;5035320;28;20184;-88
2022/04/21 00:35:43;;;;;;;11.10;7.23;;;;;;;3.02;84.17;94842.06;5035280;28;20164;-89
2022/04/21 00:38:09;;;;;;;17.73;7.97;;;;;;;3.20;84.33;94870.44;5032731;28;20190;-88
2022/04/21 00:40:35;;;;;;;13.33;8.50;;;;;;;3.23;84.51;94859.72;5024870;28;20177;-88
2022/04/21 00:43:00;;;;;;;10.93;6.80;;;;;;;3.31;84.13;94870.13;5009449;28;20685;-87
2022/04/21 00:45:27;;;;;;;10.47;7.57;;;;;;;3.10;83.65;94833.44;5009243;28;20231;-88
2022/04/21 00:47:55;;;;;;;14.40;7.47;;;;;;;3.10;83.49;94832.63;5015841;28;20232;-87
2022/04/21 00:50:29;;;;;;;10.53;7.30;;;;;;;2.93;83.48;94806.66;5017415;28;20176;-89
2022/04/21 00:52:56;;;;;;;11.93;6.53;;;;;;;3.36;83.33;94869.63;5017318;28;20168;-89
2022/04/21 00:55:22;;;;;;;14.20;7.07;;;;;;;3.01;84.11;94806.66;5034784;28;20172;-88
2022/04/21 00:57:51;;;;;;;12.50;7.17;;;;;;;3.28;84.42;94872.25;5017086;28;20171;-88
2022/04/21 01:00:17;;;;;;;10.60;6.53;;;;;;;2.88;84.72;94808.94;5034951;28;20172;-88
2022/04/21 01:02:46;;;;;;;9.73;6.33;;;;;;;2.41;85.16;94788.03;5035257;28;20178;-88
2022/04/21 01:05:32;;;;;;;13.43;7.33;;;;;;;2.75;86.29;94829.44;5034619;28;20618;-87
2022/04/21 01:08:06;;;;;;;10.67;6.73;;;;;;;2.74;85.41;94824.38;5034576;28;20183;-87
2022/04/21 01:10:34;;;;;;;11.83;7.17;;;;;;;2.97;85.11;94846.94;5016749;28;20278;-88
2022/04/21 01:13:01;;;;;;;11.77;7.57;;;;;;;3.18;84.82;94872.44;5034492;28;20160;-89
2022/04/21 01:15:27;;;;;;;11.03;6.90;;;;;;;2.73;84.47;94783.78;5016877;28;20192;-88
2022/04/21 01:17:54;;;;;;;16.77;9.27;;;;;;;3.23;84.76;94862.34;5016836;28;20612;-88
2022/04/21 01:20:20;;;;;;;18.13;8.63;;;;;;;2.87;84.29;94798.69;5034407;28;20175;-89
2022/04/21 01:22:46;;;;;;;13.40;8.20;;;;;;;3.14;84.44;94828.69;5039279;28;20171;-89
2022/04/21 01:25:12;;;;;;;13.43;7.50;;;;;;;3.24;84.13;94839.75;5021786;28;20168;-88
2022/04/21 01:27:38;;;;;;;11.90;7.97;;;;;;;2.75;84.07;94759.25;5034936;28;20237;-89
2022/04/21 01:30:09;;;;;;;13.83;8.50;;;;;;;3.20;83.78;94830.66;5016993;28;20179;-89
2022/04/21 01:32:38;;;;;;;16.60;9.40;;;;;;;2.95;84.58;94790.88;5034344;28;20198;-89
2022/04/21 01:35:08;;;;;;;18.40;9.93;;;;;;;2.58;84.59;94737.69;5037231;28;20165;-89
2022/04/21 01:43:04;;;;;;;30.23;13.27;;;;;;;2.76;84.74;94804.25;5023201;28;20175;-88
2022/04/21 01:45:30;;;;;;;23.60;12.90;;;;;;;2.92;85.69;94827.63;5017199;28;20262;-87
2022/04/21 01:47:56;;;;;;;18.83;9.40;;;;;;;2.32;85.56;94765.63;5014200;28;20603;-88
2022/04/21 01:50:23;;;;;;;16.57;9.90;;;;;;;2.52;86.61;94785.09;5014062;28;20197;-88
2022/04/21 01:52:49;;;;;;;15.33;8.90;;;;;;;2.55;85.75;94778.75;5014039;28;20581;-88
2022/04/21 01:55:14;;;;;;;14.50;9.00;;;;;;;2.25;86.50;94730.88;5014288;28;20161;-89
2022/04/21 01:57:40;;;;;;;14.70;9.47;;;;;;;2.41;86.27;94753.47;5014088;28;20531;-89
2022/04/21 02:00:07;;;;;;;13.10;7.93;;;;;;;2.82;86.23;94809.59;4996408;28;20172;-89
2022/04/21 02:02:32;;;;;;;17.10;8.67;;;;;;;2.95;85.32;94832.47;4996440;28;20227;-88
2022/04/21 02:05:00;;;;;;;12.80;7.87;;;;;;;2.53;85.33;94757.31;5014333;28;20184;-88
2022/04/21 02:07:27;;;;;;;13.00;8.30;;;;;;;2.81;85.81;94799.34;5015026;28;20192;-89
2022/04/21 02:09:53;;;;;;;13.33;8.40;;;;;;;2.54;85.71;94744.19;4996818;28;20617;-88
2022/04/21 02:12:21;;;;;;;16.87;10.87;;;;;;;2.63;84.68;94753.59;5022588;28;20187;-88
2022/04/21 02:14:48;;;;;;;18.17;11.10;;;;;;;2.56;84.61;94733.63;5004435;28;20218;-88
2022/04/21 02:17:14;;;;;;;16.47;10.10;;;;;;;2.91;84.42;94792.19;5024541;28;20706;-89
2022/04/21 02:19:39;;;;;;;17.87;10.53;;;;;;;2.75;84.33;94763.66;5030157;28;20646;-88
2022/04/21 02:22:05;;;;;;;17.43;10.47;;;;;;;2.48;84.61;94721.47;5033592;28;20172;-88
2022/04/21 02:24:31;;;;;;;17.67;10.53;;;;;;;2.58;84.16;94732.50;5015496;28;20164;-88
2022/04/21 02:26:56;;;;;;;18.87;10.07;;;;;;;2.69;84.20;94744.31;5033094;28;20192;-89
2022/04/21 02:29:22;;;;;;;15.97;10.00;;;;;;;2.59;83.52;94741.09;5015381;28;20775;-88
2022/04/21 02:35:13;;;;;;;17.17;10.90;;;;;;;3.02;83.66;94815.25;5026005;28;20195;-88
2022/04/21 02:37:41;;;;;;;15.10;10.57;;;;;;;2.67;84.56;94769.66;5023959;28;20199;-89
2022/04/21 02:40:09;;;;;;;14.70;10.00;;;;;;;2.85;84.20;94801.47;5023997;28;20160;-87
2022/04/21 02:42:38;;;;;;;20.47;11.27;;;;;;;2.76;83.80;94775.66;5008457;28;20212;-88
2022/04/21 02:45:05;;;;;;;17.00;10.63;;;;;;;2.55;83.88;94748.41;5022640;28;20180;-88
2022/04/21 02:47:31;;;;;;;21.07;11.43;;;;;;;2.98;83.95;94830.38;5000362;28;20204;-89
2022/04/21 02:49:57;;;;;;;13.17;8.83;;;;;;;2.47;83.44;94743.22;4994896;28;20180;-88
2022/04/21 02:52:23;;;;;;;17.27;10.50;;;;;;;2.69;84.17;94790.25;5016087;28;20175;-88
2022/04/21 02:57:33;;;;;;;15.30;9.83;;;;;;;2.50;83.85;94774.06;5013861;28;20246;-88
2022/04/21 03:00:03;;;;;;;16.50;9.67;;;;;;;2.38;83.75;94762.38;4995388;28;20247;-89
2022/04/21 03:02:28;;;;;;;17.30;9.87;;;;;;;2.61;84.42;94793.69;4995246;28;20632;-88
2022/04/21 03:04:54;;;;;;;13.80;8.30;;;;;;;2.77;84.08;94832.66;4995145;28;20164;-87
2022/04/21 03:07:22;;;;;;;16.57;8.87;;;;;;;2.68;84.69;94820.66;5012669;28;20700;-90
2022/04/21 03:09:53;;;;;;;12.80;8.90;;;;;;;2.30;85.11;94780.56;5012681;28;20697;-90
2022/04/21 03:12:21;;;;;;;12.23;8.07;;;;;;;2.57;85.47;94829.59;5013128;28;20191;-89
2022/04/21 03:14:47;;;;;;;16.93;9.63;;;;;;;2.48;84.94;94806.38;4995042;28;20201;-88
2022/04/21 03:17:13;;;;;;;18.63;8.57;;;;;;;2.25;85.01;94773.25;5012703;28;20153;-88
2022/04/21 03:19:39;;;;;;;16.07;9.13;;;;;;;2.17;84.96;94752.47;4994984;28;20168;-88
2022/04/21 03:24:49;;;;;;;18.03;9.87;;;;;;;2.54;84.47;94806.53;5018346;28;20191;-87
2022/04/21 03:27:15;;;;;;;23.20;11.50;;;;;;;2.60;84.31;94812.84;5021874;28;20204;-88
2022/04/21 03:29:41;;;;;;;18.50;10.97;;;;;;;2.53;84.69;94817.06;5019446;28;20206;-88
2022/04/21 03:32:13;;;;;;;19.93;11.80;;;;;;;2.45;84.93;94809.28;5023714;28;20555;-87
2022/04/21 03:34:43;;;;;;;20.30;10.47;;;;;;;2.26;85.28;94766.25;5021527;28;20191;-88
2022/04/21 03:37:13;;;;;;;19.17;11.47;;;;;;;2.56;85.04;94824.56;5022024;28;20176;-88
2022/04/21 03:39:39;;;;;;;24.73;11.70;;;;;;;2.58;85.11;94825.22;5020176;28;20534;-86
2022/04/21 03:42:17;;;;;;;24.67;14.47;;;;;;;2.18;84.64;94751.50;5024387;28;20187;-91
2022/04/21 03:44:43;;;;;;;30.70;16.43;;;;;;;2.22;84.15;94746.81;5004712;28;20176;-87
2022/04/21 03:47:08;;;;;;;30.83;17.47;;;;;;;2.12;84.34;94739.19;4997654;28;20600;-88
2022/04/21 03:49:39;;;;;;;28.40;16.57;;;;;;;2.24;84.13;94744.88;5012840;28;20202;-93
2022/04/21 03:52:05;;;;;;;28.37;16.57;;;;;;;2.66;84.54;94817.41;4996843;28;20176;-88
2022/04/21 03:54:31;;;;;;;34.83;17.93;;;;;;;2.70;84.76;94812.69;5022231;28;20188;-87
2022/04/21 03:56:56;;;;;;;33.33;18.40;;;;;;;2.30;84.53;94758.97;5010951;28;20601;-87
2022/04/21 03:59:23;;;;;;;29.67;17.60;;;;;;;2.73;85.15;94822.75;5028838;28;20673;-87
2022/04/21 04:01:51;;;;;;;33.80;18.97;;;;;;;2.82;85.42;94820.00;5023606;28;20171;-88
2022/04/21 04:04:17;;;;;;;34.53;18.60;;;;;;;2.51;85.00;94746.28;5029561;28;20639;-88
2022/04/21 04:12:11;;;;;;;31.63;17.43;;;;;;;3.37;83.93;94830.41;5032220;28;20229;-88
2022/04/21 04:14:38;;;;;;;30.87;16.77;;;;;;;3.32;83.27;94806.72;5008911;28;20173;-87
2022/04/21 04:17:08;;;;;;;24.90;15.53;;;;;;;3.29;83.04;94788.00;5026007;28;20246;-88
2022/04/21 04:19:34;;;;;;;26.90;16.17;;;;;;;3.68;83.54;94824.47;5014233;28;20190;-88
2022/04/21 04:22:00;;;;;;;27.70;16.17;;;;;;;3.66;83.20;94771.78;5010828;28;20615;-88
2022/04/21 04:24:27;;;;;;;29.43;14.80;;;;;;;3.78;82.04;94757.41;5021340;28;20177;-89
2022/04/21 04:26:53;;;;;;;27.50;16.43;;;;;;;4.15;81.93;94770.50;5003539;28;20212;-87
2022/04/21 04:29:22;;;;;;;26.20;15.07;;;;;;;4.31;80.98;94771.38;5024525;28;20265;-88
2022/04/21 04:31:57;;;;;;;23.10;13.63;;;;;;;4.52;80.57;94782.75;5023457;28;20176;-90
2022/04/21 04:34:23;;;;;;;25.47;14.00;;;;;;;4.50;80.54;94763.06;5024730;28;20168;-86
2022/04/21 04:36:49;;;;;;;23.03;13.80;;;;;;;4.80;80.28;94795.22;5007451;28;20172;-88
2022/04/21 04:39:15;;;;;;;24.17;14.93;;;;;;;4.94;80.20;94807.47;5017758;28;20180;-88
2022/04/21 04:44:25;;;;;;;24.00;15.90;;;;;;;4.80;80.26;94788.22;5015693;28;20168;-86
2022/04/21 04:46:51;;;;;;;27.07;15.77;;;;;;;4.79;80.33;94797.03;5015777;28;20204;-86
2022/04/21 04:49:17;;;;;;;32.60;16.90;;;;;;;4.66;81.18;94768.16;5015663;28;20315;-87
2022/04/21 04:51:43;;;;;;;33.23;19.63;;;;;;;4.41;80.88;94738.09;4998613;28;20172;-88
2022/04/21 04:54:10;;;;;;;38.40;20.80;;;;;;;5.00;80.92;94819.84;5016071;28;20615;-87
2022/04/21 04:56:37;;;;;;;35.60;20.77;;;;;;;5.01;80.93;94825.84;5015563;28;20230;-87
2022/04/21 04:59:03;;;;;;;43.07;22.67;;;;;;;4.60;81.34;94768.84;4999124;28;20187;-88
2022/04/21 05:01:31;;;;;;;39.20;20.37;;;;;;;5.02;81.27;94828.25;5021988;28;20188;-87
2022/04/21 05:04:02;;;;;;;40.23;21.40;;;;;;;5.10;82.19;94827.41;5010970;28;20177;-87
2022/04/21 05:06:28;;;;;;;28.67;18.80;;;;;;;5.00;81.79;94772.88;5007508;28;20634;-86
2022/04/21 05:08:56;;;;;;;27.50;15.90;;;;;;;4.81;81.12;94723.84;5023783;28;20299;-86
2022/04/21 05:11:21;;;;;;;24.37;14.77;;;;;;;5.13;80.34;94764.41;5023504;28;20176;-86
2022/04/21 05:13:47;;;;;;;25.27;14.07;;;;;;;5.52;80.34;94806.72;5020034;28;20173;-88
2022/04/21 05:16:12;;;;;;;25.03;13.07;;;;;;;5.72;79.29;94835.69;5017936;28;20177;-87
2022/04/21 05:18:38;;;;;;;24.53;14.83;;;;;;;5.39;79.45;94782.22;4997110;28;20274;-87
2022/04/21 05:21:04;;;;;;;29.07;15.50;;;;;;;5.46;79.35;94781.31;5030484;28;20233;-87
2022/04/21 05:23:34;;;;;;;23.47;14.70;;;;;;;6.00;78.86;94843.72;5034434;28;20160;-87
2022/04/21 05:26:00;;;;;;;20.00;12.90;;;;;;;6.04;78.55;94843.19;5016485;28;20282;-87
2022/04/21 05:28:26;;;;;;;20.67;12.90;;;;;;;5.72;77.93;94780.03;5035702;28;20555;-87
2022/04/21 05:30:55;;;;;;;17.30;11.87;;;;;;;5.91;77.86;94790.75;5032569;28;20160;-87
2022/04/21 05:33:24;;;;;;;20.40;11.67;;;;;;;6.07;77.49;94792.34;5024993;28;20583;-87
2022/04/21 05:35:50;;;;;;;22.93;12.30;;;;;;;6.30;78.31;94792.19;5023516;28;20634;-85
2022/04/21 05:38:16;;;;;;;15.90;11.33;;;;;;;6.60;76.99;94769.31;5021717;28;20188;-87
2022/04/21 05:40:43;;;;;;;16.07;10.80;;;;;;;6.98;75.83;94778.50;5028509;28;20318;-86
2022/04/21 05:43:11;;;;;;;18.17;9.87;;;;;;;7.71;73.43;94834.72;5034806;28;20167;-87
2022/04/21 05:45:37;;;;;;;15.13;9.40;;;;;;;7.41;69.96;94780.97;5034388;28;20190;-86
2022/04/21 05:48:03;;;;;;;13.67;9.27;;;;;;;7.82;70.56;94834.19;5034303;28;20251;-86
2022/04/21 05:50:29;;;;;;;17.03;8.97;;;;;;;7.83;69.63;94829.75;5030899;28;20188;-86
2022/04/21 05:53:01;;;;;;;15.53;9.60;;;;;;;7.32;70.02;94775.09;5020546;28;20168;-87
2022/04/21 05:55:28;;;;;;;16.47;9.77;;;;;;;7.42;71.43;94800.94;5024091;28;20168;-86
2022/04/21 05:57:54;;;;;;;17.37;10.70;;;;;;;7.53;70.10;94831.78;5007205;28;20562;-86
2022/04/21 06:00:20;;;;;;;15.63;9.70;;;;;;;6.98;70.13;94768.03;5003763;28;20180;-86
2022/04/21 06:02:46;;;;;;;17.13;10.97;;;;;;;7.04;70.08;94792.63;5020900;28;20176;-87
2022/04/21 06:05:12;;;;;;;15.93;10.27;;;;;;;6.58;70.47;94726.84;5031605;28;20172;-87
2022/04/21 06:07:38;;;;;;;21.47;10.23;;;;;;;6.72;71.91;94744.28;5033609;28;20716;-87
2022/04/21 06:10:03;;;;;;;16.53;9.03;;;;;;;6.94;71.53;94772.00;5033407;28;20223;-86
2022/04/21 06:12:29;;;;;;;15.33;9.40;;;;;;;6.67;72.25;94752.69;5033972;28;20313;-87
2022/04/21 06:14:55;;;;;;;19.33;10.10;;;;;;;6.76;72.37;94766.44;5015797;28;20175;-86
2022/04/21 06:17:20;;;;;;;15.03;10.07;;;;;;;6.50;72.28;94759.19;5033530;28;20556;-86
2022/04/21 06:19:47;;;;;;;15.37;9.47;;;;;;;6.61;72.57;94778.78;5027097;28;20233;-86
2022/04/21 06:22:13;;;;;;;23.57;10.57;;;;;;;6.14;73.12;94716.66;5022459;28;20245;-87
2022/04/21 06:24:39;;;;;;;17.33;10.80;;;;;;;6.48;73.98;94766.44;5003065;28;20183;-86
2022/04/21 06:27:04;;;;;;;17.70;10.40;;;;;;;6.73;73.50;94821.75;5022610;28;20200;-87
2022/04/21 06:29:30;;;;;;;19.60;11.37;;;;;;;6.44;72.90;94755.53;5002925;28;20279;-84
2022/04/21 06:31:56;;;;;;;21.03;12.30;;;;;;;6.55;73.27;94782.97;5021622;28;20184;-86
2022/04/21 06:34:22;;;;;;;18.93;11.50;;;;;;;6.66;74.57;94777.22;5019111;28;20183;-86
2022/04/21 06:36:48;;;;;;;18.97;10.50;;;;;;;6.65;74.43;94756.50;5021934;28;20165;-86
2022/04/21 06:39:14;;;;;;;18.80;10.90;;;;;;;6.57;72.63;94767.09;5004538;28;20187;-87
2022/04/21 06:41:40;;;;;;;20.57;10.27;;;;;;;6.67;72.44;94784.06;5003471;28;20612;-85
2022/04/21 06:49:33;;;;;;;18.67;10.47;;;;;;;6.64;72.18;94809.81;5023563;28;20218;-87
2022/04/21 06:51:58;;;;;;;20.13;10.20;;;;;;;6.72;72.22;94813.09;5015291;28;20207;-87
2022/04/21 06:54:24;;;;;;;19.43;11.03;;;;;;;6.61;72.05;94768.31;5033071;28;20172;-85
2022/04/21 06:56:49;;;;;;;18.83;10.63;;;;;;;7.05;73.14;94820.41;5032946;28;20156;-86
2022/04/21 06:59:15;;;;;;;21.27;10.27;;;;;;;6.88;71.90;94764.94;5032892;28;20160;-85
2022/04/21 07:01:41;;;;;;;16.40;9.60;;;;;;;7.13;71.22;94771.34;5033206;28;20175;-85
2022/04/21 07:04:07;;;;;;;14.03;9.73;;;;;;;7.05;71.13;94732.25;5033106;28;20164;-85
2022/04/21 07:07:15;;;;;;;17.20;10.10;;;;;;;7.76;70.24;94828.91;5015367;28;20196;-85
2022/04/21 07:09:41;;;;;;;18.73;10.43;;;;;;;7.77;67.74;94836.59;5023366;28;20219;-84
2022/04/21 07:12:06;;;;;;;18.53;10.37;;;;;;;7.34;69.16;94746.09;5024705;28;20187;-84
2022/04/21 07:14:32;;;;;;;18.47;10.70;;;;;;;7.75;68.35;94804.53;5020764;28;20233;-84
2022/04/21 07:16:58;;;;;;;15.50;9.67;;;;;;;7.76;69.55;94772.09;5030616;28;20645;-84
2022/04/21 07:19:24;;;;;;;15.33;9.07;;;;;;;7.91;68.14;94785.03;5007387;28;20176;-84
2022/04/21 07:21:49;;;;;;;14.13;9.10;;;;;;;8.40;67.40;94832.00;5023739;28;20664;-84
2022/04/21 07:24:15;;;;;;;20.53;9.43;;;;;;;8.39;66.51;94838.25;5023102;28;20171;-83
2022/04/21 07:26:41;;;;;;;16.80;10.70;;;;;;;7.78;68.76;94785.00;5024770;28;20192;-84
2022/04/21 07:29:06;;;;;;;17.10;10.50;;;;;;;8.12;69.15;94826.88;5018232;28;20164;-84
2022/04/21 07:31:32;;;;;;;20.07;11.20;;;;;;;8.45;69.61;94844.56;5015371;28;20182;-85
2022/04/21 07:33:57;;;;;;;18.73;10.73;;;;;;;8.52;69.37;94825.19;5024270;28;20222;-85
2022/04/21 07:36:23;;;;;;;21.70;11.40;;;;;;;8.59;67.94;94781.41;5003939;28;20175;-85
2022/04/21 07:38:49;;;;;;;18.17;10.87;;;;;;;9.04;65.32;94808.69;5020105;28;20255;-87
2022/04/21 07:41:14;;;;;;;19.03;10.93;;;;;;;9.33;64.99;94819.78;5002060;28;20183;-86
2022/04/21 07:43:42;;;;;;;1999.90;999.90;;;;;;;9.52;64.88;94839.97;5020747;28;20176;-86
2022/04/21 07:46:09;;;;;;;1999.90;999.90;;;;;;;9.06;63.09;94813.75;5028287;28;20679;-87
2022/04/21 07:51:21;;;;;;;1999.90;999.90;;;;;;;10.06;64.59;94852.78;5024538;28;20230;-84
2022/04/21 07:53:47;;;;;;;1999.90;999.90;;;;;;;10.21;63.67;94845.47;5020172;28;20259;-82
2022/04/21 07:56:12;;;;;;;1999.90;999.90;;;;;;;10.35;62.55;94850.69;5021017;28;20255;-81
2022/04/21 07:58:38;;;;;;;78.60;58.20;;;;;;;10.10;61.04;94811.91;5001252;28;20195;-84
2022/04/21 08:01:03;;;;;;;122.83;110.37;;;;;;;9.98;61.38;94789.09;5002827;28;20584;-84
2022/04/21 08:03:35;;;;;;;18.77;11.20;;;;;;;9.97;61.10;94796.19;5023623;28;20180;-84
2022/04/21 08:06:01;;;;;;;18.27;12.00;;;;;;;10.51;62.56;94852.84;4999417;28;20640;-84
2022/04/21 08:08:26;;;;;;;19.90;11.50;;;;;;;10.42;61.54;94809.34;5022748;28;20593;-82
2022/04/21 08:10:52;;;;;;;16.27;10.20;;;;;;;10.70;59.30;94851.13;5019778;28;20219;-84
2022/04/21 08:13:18;;;;;;;20.00;11.10;;;;;;;10.67;62.22;94835.75;5019640;28;20202;-85
2022/04/21 08:15:43;;;;;;;21.43;11.90;;;;;;;10.30;59.68;94796.06;5020848;28;20165;-87
2022/04/21 08:18:09;;;;;;;200.03;189.10;;;;;;;10.31;61.22;94792.41;5004152;28;20711;-86
2022/04/21 08:20:35;;;;;;;17.17;12.37;;;;;;;10.32;62.42;94778.25;5002774;28;20180;-84
2022/04/21 08:23:02;;;;;;;29.30;25.53;;;;;;;11.02;61.65;94852.72;5006642;28;20266;-89
2022/04/21 08:33:39;;;;;;;16.37;11.40;;;;;;;10.19;64.40;94837.00;5019891;28;20316;-85
2022/04/21 08:36:05;;;;;;;17.20;10.33;;;;;;;10.40;62.66;94827.19;5022862;28;20215;-86
2022/04/21 08:38:31;;;;;;;21.77;11.90;;;;;;;10.95;63.96;94844.06;5022053;28;20188;-86
2022/04/21 08:40:59;;;;;;;16.53;11.20;;;;;;;10.95;59.44;94817.72;5004625;28;20180;-86
2022/04/21 08:43:29;;;;;;;63.43;58.67;;;;;;;11.25;59.35;94844.25;5018589;28;20697;-87
2022/04/21 08:45:56;;;;;;;83.73;77.30;;;;;;;10.98;58.82;94782.28;5004062;28;20219;-84
2022/04/21 08:48:24;;;;;;;18.90;12.00;;;;;;;11.35;61.09;94849.84;5000949;28;20219;-85
2022/04/21 08:50:50;;;;;;;59.97;54.77;;;;;;;11.40;58.33;94842.13;5032804;28;20202;-85
2022/04/21 08:53:21;;;;;;;20.23;10.80;;;;;;;11.01;58.12;94780.00;5033302;28;20187;-86
2022/04/21 08:55:51;;;;;;;92.50;86.43;;;;;;;11.24;60.99;94826.84;5014708;28;20210;-85
2022/04/21 08:58:18;;;;;;;60.27;55.07;;;;;;;11.31;60.40;94824.97;5018151;28;20187;-85
2022/04/21 09:00:44;;;;;;;115.90;107.93;;;;;;;11.21;61.43;94817.53;5027592;28;20568;-85
2022/04/21 09:03:11;;;;;;;227.67;210.47;;;;;;;11.19;61.49;94822.22;5029820;28;20172;-86
2022/04/21 09:05:37;;;;;;;27.43;24.77;;;;;;;11.13;60.22;94830.97;5027001;28;20183;-84
2022/04/21 09:08:03;;;;;;;16.27;11.87;;;;;;;11.08;60.06;94832.63;5007690;28;20257;-84
2022/04/21 09:10:33;;;;;;;21.93;12.47;;;;;;;10.98;59.76;94812.06;5024407;28;20870;-84
2022/04/21 09:13:01;;;;;;;19.80;13.13;;;;;;;11.13;60.39;94819.63;5024510;28;20181;-83
2022/04/21 09:15:27;;;;;;;21.93;13.50;;;;;;;11.26;60.67;94815.03;5018937;28;20255;-80
2022/04/21 09:17:56;;;;;;;22.07;12.17;;;;;;;11.37;60.17;94813.53;5022208;28;20180;-82
2022/04/21 09:20:36;;;;;;;21.70;12.70;;;;;;;11.12;59.82;94824.09;5009757;28;20246;-83
2022/04/21 09:23:11;;;;;;;21.27;11.77;;;;;;;10.89;61.04;94808.06;5025283;28;20199;-83
2022/04/21 09:25:51;;;;;;;1999.90;999.90;;;;;;;10.43;63.98;94760.97;5025153;28;20545;-85
2022/04/21 09:28:29;;;;;;;424.80;383.90;;;;;;;10.84;60.89;94802.63;5008923;28;20196;-85
2022/04/21 09:30:56;;;;;;;1395.33;999.90;;;;;;;10.70;61.59;94772.13;5023803;28;20168;-86
2022/04/21 09:33:33;;;;;;;232.33;210.77;;;;;;;11.19;60.11;94818.75;5022645;28;20665;-85
2022/04/21 09:36:00;;;;;;;35.13;31.90;;;;;;;11.01;61.39;94790.53;5008407;28;20170;-82
2022/04/21 09:38:26;;;;;;;817.83;763.17;;;;;;;10.81;61.47;94769.59;5024895;28;20526;-83
2022/04/21 09:40:52;;;;;;;1047.33;972.30;;;;;;;11.01;61.39;94777.38;5034046;28;20179;-82
2022/04/21 09:43:29;;;;;;;425.43;387.23;;;;;;;11.48;61.56;94823.38;5008600;28;20180;-83
2022/04/21 09:46:14;;;;;;;18.83;12.37;;;;;;;11.50;60.27;94823.94;5014150;28;20607;-83
2022/04/21 09:48:40;;;;;;;22.53;11.50;;;;;;;11.51;60.08;94820.28;4996834;28;20272;-82
2022/04/21 09:51:11;;;;;;;18.07;11.53;;;;;;;11.48;59.59;94817.31;4996713;28;20200;-83
2022/04/21 09:53:55;;;;;;;26.83;13.17;;;;;;;11.33;60.43;94823.69;5013743;28;20183;-83
2022/04/21 09:56:31;;;;;;;29.10;12.67;;;;;;;11.18;59.78;94828.50;5014203;28;20149;-82
2022/04/21 09:58:58;;;;;;;23.37;13.87;;;;;;;10.95;61.38;94823.00;5013779;28;20164;-82
2022/04/21 10:01:23;;;;;;;1999.90;999.90;;;;;;;11.07;63.42;94818.63;5013835;28;20165;-83
2022/04/21 10:03:49;;;;;;;1999.90;999.90;;;;;;;11.27;63.66;94814.03;5016729;28;20183;-82
2022/04/21 10:06:16;;;;;;;1661.77;999.90;;;;;;;11.32;61.41;94813.41;5021353;28;20713;-83
2022/04/21 10:08:43;;;;;;;1360.40;999.90;;;;;;;11.18;61.50;94783.69;5025119;28;20211;-82
2022/04/21 10:11:09;;;;;;;486.80;448.03;;;;;;;11.35;61.71;94802.41;5018829;28;20585;-83
2022/04/21 10:13:35;;;;;;;258.00;241.70;;;;;;;11.23;60.22;94783.06;5013652;28;20222;-82
2022/04/21 10:16:01;;;;;;;179.70;169.50;;;;;;;11.10;60.81;94762.91;5013827;28;20638;-83
2022/04/21 10:18:27;;;;;;;1999.90;999.90;;;;;;;11.07;63.46;94744.09;5013843;28;20575;-82
2022/04/21 10:20:55;;;;;;;1999.90;999.90;;;;;;;11.55;63.75;94795.13;5013567;28;20173;-82
2022/04/21 10:23:22;;;;;;;1999.90;999.90;;;;;;;11.52;63.24;94773.66;5013668;28;20156;-83
2022/04/21 10:25:59;;;;;;;1999.90;999.90;;;;;;;11.48;63.15;94759.31;5013771;28;20169;-83
2022/04/21 10:28:37;;;;;;;1999.90;999.90;;;;;;;11.81;62.11;94795.91;5014672;28;20259;-82
2022/04/21 10:31:25;;;;;;;50.07;45.63;;;;;;;11.65;59.83;94786.72;5022964;28;20720;-83
2022/04/21 10:34:01;;;;;;;23.80;13.40;;;;;;;11.20;61.32;94789.56;5007671;28;20175;-83
2022/04/21 10:36:47;;;;;;;1999.90;999.90;;;;;;;10.94;64.44;94763.44;5022385;28;20172;-84
2022/04/21 10:39:18;;;;;;;1999.90;999.90;;;;;;;11.22;63.01;94792.81;5026062;28;20176;-85
2022/04/21 10:41:44;;;;;;;1999.90;999.90;;;;;;;11.39;61.51;94790.41;5016959;28;20266;-86
2022/04/21 10:44:26;;;;;;;1428.10;999.90;;;;;;;11.44;61.54;94787.94;5024917;28;20235;-85
2022/04/21 10:47:27;;;;;;;1579.23;999.90;;;;;;;11.47;61.79;94786.69;5016355;28;20207;-84
2022/04/21 10:50:01;;;;;;;1999.90;999.90;;;;;;;11.43;62.70;94781.03;4992762;28;20191;-84
2022/04/21 10:57:48;;;;;;;1999.90;999.90;;;;;;;11.28;62.37;94757.66;5023382;28;20776;-85
2022/04/21 11:00:28;;;;;;;1088.57;918.13;;;;;;;11.45;61.26;94781.63;5023477;28;20546;-85
2022/04/21 11:03:08;;;;;;;1783.87;999.90;;;;;;;11.56;61.93;94785.38;5004173;28;20178;-84
2022/04/21 11:05:40;;;;;;;1284.47;999.90;;;;;;;11.70;61.85;94784.22;5021910;28;20221;-85
2022/04/21 11:08:18;;;;;;;1999.90;999.90;;;;;;;11.48;62.08;94764.59;5022646;28;20167;-84
2022/04/21 11:10:44;;;;;;;1999.90;999.90;;;;;;;11.61;64.26;94769.72;5006417;28;20208;-84
2022/04/21 11:13:18;;;;;;;1999.90;999.90;;;;;;;11.63;62.45;94775.56;4995634;28;20650;-85
2022/04/21 11:15:58;;;;;;;1999.90;999.90;;;;;;;11.58;65.27;94744.59;4995341;28;20180;-83
2022/04/21 11:18:30;;;;;;;1999.90;999.90;;;;;;;11.93;64.63;94776.50;5013267;28;20156;-83
2022/04/21 11:21:25;;;;;;;1999.90;999.90;;;;;;;12.22;62.50;94780.19;5012715;28;20159;-83
2022/04/21 11:23:50;;;;;;;1017.93;715.70;;;;;;;12.44;60.30;94775.25;5012690;28;20172;-83
2022/04/21 11:26:16;;;;;;;989.93;902.33;;;;;;;12.21;60.02;94725.78;5014158;28;20224;-83
2022/04/21 11:28:43;;;;;;;293.93;267.23;;;;;;;12.63;59.88;94783.91;5027079;28;20887;-83
2022/04/21 11:31:08;;;;;;;1999.90;999.90;;;;;;;12.32;62.50;94740.06;5023325;28;20175;-83
2022/04/21 11:33:35;;;;;;;1652.73;999.90;;;;;;;12.54;61.11;94766.78;5021134;28;20234;-83
2022/04/21 11:36:05;;;;;;;1282.57;999.90;;;;;;;12.56;61.06;94764.72;5029605;28;20171;-84
2022/04/21 11:38:34;;;;;;;138.30;128.23;;;;;;;12.28;60.29;94765.31;5032499;28;20163;-83
2022/04/21 11:41:04;;;;;;;83.13;76.67;;;;;;;12.27;60.09;94761.88;5024327;28;20207;-83
2022/04/21 11:43:30;;;;;;;60.17;55.67;;;;;;;12.30;60.08;94760.59;5022189;28;20176;-83
2022/04/21 11:45:58;;;;;;;141.90;133.43;;;;;;;12.41;60.29;94760.66;5025626;28;20222;-83
2022/04/21 11:48:39;;;;;;;27.07;24.23;;;;;;;12.04;60.05;94740.63;5028413;28;20680;-83
2022/04/21 11:51:06;;;;;;;904.17;829.47;;;;;;;11.96;61.34;94749.66;5032277;28;20158;-83
2022/04/21 11:53:35;;;;;;;1999.90;999.90;;;;;;;12.25;63.11;94747.28;5013004;28;20208;-83
2022/04/21 11:56:02;;;;;;;1212.03;999.90;;;;;;;12.43;60.43;94728.75;5012964;28;20175;-83
2022/04/21 11:58:39;;;;;;;1283.60;999.90;;;;;;;12.42;61.16;94730.59;5012644;28;20161;-83
2022/04/21 12:06:43;;;;;;;1319.03;999.90;;;;;;;12.83;60.09;94721.84;5012914;28;20254;-83
2022/04/21 12:09:15;;;;;;;1655.03;876.10;;;;;;;12.87;61.30;94724.03;5012378;28;20298;-83
2022/04/21 12:11:51;;;;;;;1999.90;999.90;;;;;;;12.78;63.33;94724.38;5012260;28;20547;-84
2022/04/21 12:14:17;;;;;;;1999.90;999.90;;;;;;;12.76;61.34;94693.91;4998807;28;20645;-84